Latest Coastal Weather Observations for Minlaton Airport

IDS60701

Issued at 2:31 pm CDT Wednesday 22 February 2017 (issued every 10 minutes, with the page automatically refreshed every 10 minutes)

About coastal observations | Map of coastal stations | Coastal observations for SA | Marine services | Other Formats
Station Details ID: 022031 Name: MINLATON AERO Lat: -34.75 Lon: 137.53 Height: 32.0 m
Data from the previous 72 hours. | See also: Recent months at Minlaton Airport
Date/Time
CDT
Temp
°C
Wind Pressure Rain since
9am
mm
Weather Cloud Vis
km
Sea
Height
m
Swell
Dir  Spd
kts
Gust
kts
hPa Trend Height
m
Period
s
Dir
22/02:00pm 24.6 NW 19 24 1011.4 - 0.0 - - - - - - -
22/01:30pm 23.7 WNW 20 25 1011.2 - 0.0 - - - - - - -
22/01:00pm 23.4 WNW 25 32 1010.9 - 0.0 - - - - - - -
22/12:30pm 23.6 WNW 24 30 1010.9 - 0.0 - - - - - - -
22/12:00pm 24.0 WNW 21 28 1011.0 - 0.0 - - - - - - -
22/11:49am 23.7 WNW 20 24 1010.8 - 0.0 - - - - - - -
22/11:30am 22.6 NW 13 19 1010.1 - 0.0 - - - - - - -
22/11:00am 23.7 WNW 13 17 1010.4 - 0.0 - - - - - - -
22/10:30am 22.4 W 19 25 1010.9 - 0.0 - - - - - - -
22/10:00am 24.1 WSW 23 29 1010.7 - 0.0 - - - - - - -
22/09:30am 22.1 WSW 28 38 1010.1 - 0.0 - - - - - - -
22/09:11am 22.7 WNW 27 38 1009.3 - 0.0 - - - - - - -
22/09:08am 23.8 NW 27 36 1009.3 - 0.0 - - - - - - -
22/09:00am 25.8 NNW 26 36 1008.6 - 0.0 - - - - - - -
22/08:48am 25.3 NNW 21 31 1008.2 - 0.0 - - - - - - -
22/08:30am 24.2 NNW 24 31 1007.7 - 0.0 - - - - - - -
22/08:00am 25.4 N 27 36 1006.9 - 0.0 - - - - - - -
22/07:33am 25.2 N 25 35 1005.9 - 0.0 - - - - - - -
22/07:30am 24.8 N 23 30 1006.0 - 0.0 - - - - - - -
22/07:09am 24.5 N 24 34 1005.7 - 0.0 - - - - - - -
22/07:00am 24.5 N 25 30 1005.6 - 0.0 - - - - - - -
22/06:30am 24.7 N 22 27 1005.3 - 0.0 - - - - - - -
22/06:00am 23.7 NNE 19 24 1005.5 - 0.0 - - - - - - -
22/05:30am 24.2 NNE 19 25 1005.6 - 0.0 - - - - - - -
22/05:00am 24.2 NNE 20 25 1005.4 - 0.0 - - - - - - -
22/04:30am 24.8 NNE 22 29 1005.9 - 0.0 - - - - - - -
22/04:00am 25.1 NNE 21 27 1006.3 - 0.0 - - - - - - -
22/03:30am 24.7 NNE 19 24 1006.8 - 0.0 - - - - - - -
22/03:00am 24.5 NNE 18 23 1007.3 - 0.0 - - - - - - -
22/02:30am 24.3 NNE 18 23 1007.8 - 0.0 - - - - - - -
22/02:00am 24.5 NNE 19 24 1008.1 - 0.0 - - - - - - -
22/01:30am 23.8 NNE 18 23 1008.5 - 0.0 - - - - - - -
22/01:00am 22.8 NE 16 19 1009.0 - 0.0 - - - - - - -
22/12:30am 22.3 NE 16 19 1009.2 - 0.0 - - - - - - -
22/12:00am 22.3 ENE 14 17 1009.8 - 0.0 - - - - - - -
 
Date/Time
CDT
Temp
°C
Wind Pressure Rain since
9am
mm
Weather Cloud Vis
km
Sea
Height
m
Swell
Dir  Spd
kts
Gust
kts
hPa Trend Height
m
Period
s
Dir
21/11:30pm 22.9 ENE 16 19 1009.9 - 0.0 - - - - - - -
21/11:00pm 22.6 ENE 16 21 1010.4 - 0.0 - - - - - - -
21/10:30pm 22.7 ENE 16 20 1010.9 - 0.0 - - - - - - -
21/10:00pm 22.5 ENE 15 17 1011.3 - 0.0 - - - - - - -
21/09:30pm 22.1 ENE 12 14 1011.2 - 0.0 - - - - - - -
21/09:00pm 23.9 ENE 12 14 1011.1 - 0.0 - - - - - - -
21/08:30pm 23.9 NE 11 13 1011.0 - 0.0 - - - - - - -
21/08:00pm 26.5 NE 11 13 1010.9 - 0.0 - - - - - - -
21/07:30pm 28.7 NNE 10 12 1010.9 - 0.0 - - - - - - -
21/07:00pm 29.7 N 12 15 1010.9 - 0.0 - - - - - - -
21/06:30pm 30.0 N 12 16 1011.0 - 0.0 - - - - - - -
21/06:00pm 30.1 NNW 8 11 1011.3 - 0.0 - - - - - - -
21/05:30pm 29.3 NW 10 14 1011.7 - 0.0 - - - - - - -
21/05:00pm 27.9 NW 12 16 1012.2 - 0.0 - - - - - - -
21/04:30pm 28.5 NW 14 18 1012.6 - 0.0 - - - - - - -
21/04:00pm 28.5 NW 14 17 1013.1 - 0.0 - - - - - - -
21/03:30pm 28.4 NW 15 17 1013.5 - 0.0 - - - - - - -
21/03:00pm 27.7 NW 15 19 1014.1 - 0.0 - - - - - - -
21/02:30pm 27.6 NW 15 20 1014.5 - 0.0 - - - - - - -
21/02:00pm 27.7 NW 16 21 1014.9 - 0.0 - - - - - - -
21/01:30pm 28.0 NW 17 22 1015.3 - 0.0 - - - - - - -
21/01:00pm 27.8 NW 16 20 1015.7 - 0.0 - - - - - - -
21/12:30pm 27.7 NNW 14 19 1016.2 - 0.0 - - - - - - -
21/12:00pm 25.8 NW 12 15 1016.6 - 0.0 - - - - - - -
21/11:30am 25.1 NW 11 16 1016.9 - 0.0 - - - - - - -
21/11:00am 25.3 N 11 19 1017.4 - 0.0 - - - - - - -
21/10:30am 24.0 N 13 17 1017.8 - 0.0 - - - - - - -
21/10:00am 22.2 NNE 12 16 1017.8 - 0.0 - - - - - - -
21/09:30am 20.7 ENE 13 16 1017.9 - 0.0 - - - - - - -
21/09:00am 18.8 ENE 15 18 1017.8 - 0.0 - - - - - - -
21/08:30am 17.1 ENE 15 20 1017.7 - 0.0 - - - - - - -
21/08:00am 15.0 E 13 16 1017.7 - 0.0 - - - - - - -
21/07:30am 13.3 E 13 16 1017.4 - 0.0 - - - - - - -
21/07:00am 12.6 ENE 14 17 1017.1 - 0.0 - - - - - - -
21/06:30am 12.7 ENE 13 15 1016.8 - 0.0 - - - - - - -
21/06:00am 12.3 ENE 13 17 1016.8 - 0.0 - - - - - - -
21/05:30am 12.6 ENE 11 17 1017.0 - 0.0 - - - - - - -
21/05:00am 11.9 ENE 12 14 1017.0 - 0.0 - - - - - - -
21/04:30am 11.4 E 8 11 1017.1 - 0.0 - - - - - - -
21/04:00am 11.7 E 9 11 1017.2 - 0.0 - - - - - - -
21/03:30am 12.0 E 10 11 1017.1 - 0.0 - - - - - - -
21/03:00am 11.9 E 11 13 1017.4 - 0.0 - - - - - - -
21/02:30am 11.6 E 11 12 1017.6 - 0.0 - - - - - - -
21/02:00am 11.6 E 11 12 1017.6 - 0.0 - - - - - - -
21/01:30am 11.8 ESE 11 12 1018.1 - 0.0 - - - - - - -
21/01:00am 11.5 SE 9 10 1018.5 - 0.0 - - - - - - -
21/12:30am 12.1 ESE 9 11 1018.6 - 0.0 - - - - - - -
21/12:00am 12.0 ESE 8 10 1018.9 - 0.0 - - - - - - -
 
Date/Time
CDT
Temp
°C
Wind Pressure Rain since
9am
mm
Weather Cloud Vis
km
Sea
Height
m
Swell
Dir  Spd
kts
Gust
kts
hPa Trend Height
m
Period
s
Dir
20/11:30pm 12.8 SE 10 12 1019.0 - 0.0 - - - - - - -
20/11:00pm 13.0 SE 9 10 1019.0 - 0.0 - - - - - - -
20/10:30pm 12.7 SSE 9 11 1019.3 - 0.0 - - - - - - -
20/10:00pm 13.7 SE 11 12 1019.0 - 0.0 - - - - - - -
20/09:30pm 14.1 SE 10 12 1018.7 - 0.0 - - - - - - -
20/09:00pm 15.1 SE 10 12 1018.5 - 0.0 - - - - - - -
20/08:30pm 15.6 SE 10 11 1018.4 - 0.0 - - - - - - -
20/08:00pm 17.0 ESE 11 14 1018.1 - 0.0 - - - - - - -
20/07:30pm 18.4 ESE 12 16 1017.6 - 0.0 - - - - - - -
20/07:00pm 18.8 SE 11 13 1017.4 - 0.0 - - - - - - -
20/06:30pm 19.7 SSE 9 13 1017.3 - 0.0 - - - - - - -
20/06:00pm 20.3 SSE 8 11 1017.1 - 0.0 - - - - - - -
20/05:30pm 20.6 SSE 8 12 1016.9 - 0.0 - - - - - - -
20/05:00pm 21.1 SSE 8 10 1016.8 - 0.0 - - - - - - -
20/04:30pm 22.1 SSW 9 13 1016.8 - 0.0 - - - - - - -
20/04:00pm 20.9 SSE 8 11 1017.0 - 0.0 - - - - - - -
20/03:30pm 20.3 S 8 14 1017.1 - 0.0 - - - - - - -
20/03:00pm 20.5 SW 10 15 1017.4 - 0.0 - - - - - - -
20/02:30pm 19.6 WSW 6 17 1017.5 - 0.0 - - - - - - -
20/02:00pm 20.0 SE 5 10 1017.8 - 0.0 - - - - - - -
20/01:30pm 19.4 WSW 10 14 1017.9 - 0.0 - - - - - - -
20/01:00pm 18.9 WSW 10 14 1018.1 - 0.0 - - - - - - -
20/12:30pm 19.3 WSW 10 14 1018.2 - 0.0 - - - - - - -
20/12:00pm 19.5 SW 9 13 1018.3 - 0.0 - - - - - - -
20/11:30am 20.1 S 6 9 1018.4 - 0.0 - - - - - - -
20/11:00am 19.9 SSW 7 12 1018.7 - 0.0 - - - - - - -
20/10:30am 18.7 SSW 6 9 1018.8 - 0.0 - - - - - - -
20/10:00am 18.5 S 7 10 1018.8 - 0.0 - - - - - - -
20/09:30am 19.0 S 7 11 1018.7 - 0.0 - - - - - - -
20/09:00am 17.4 SSE 9 11 1018.6 - 0.0 - - - - - - -
20/08:30am 16.2 S 6 7 1018.7 - 0.0 - - - - - - -
20/08:00am 13.8 SSE 7 7 1018.4 - 0.0 - - - - - - -
20/07:30am 12.9 SSE 8 9 1018.0 - 0.0 - - - - - - -
20/07:00am 11.4 SE 6 7 1017.6 - 0.0 - - - - - - -
20/06:30am 12.5 SE 5 7 1017.2 - 0.0 - - - - - - -
20/06:00am 11.8 SSE 4 4 1017.1 - 0.0 - - - - - - -
20/05:30am 11.6 S 5 6 1017.0 - 0.0 - - - - - - -
20/05:00am 11.4 SSE 4 5 1016.8 - 0.0 - - - - - - -
20/04:30am 12.1 SE 8 9 1016.7 - 0.0 - - - - - - -
20/04:00am 11.0 SE 7 8 1016.7 - 0.0 - - - - - - -
20/03:30am 11.3 S 8 9 1016.8 - 0.0 - - - - - - -
20/03:00am 11.1 SSE 8 8 1016.8 - 0.0 - - - - - - -
20/02:30am 11.1 SSE 7 8 1016.9 - 0.0 - - - - - - -
20/02:00am 11.0 S 8 8 1017.1 - 0.0 - - - - - - -
20/01:30am 11.5 S 9 10 1017.5 - 0.0 - - - - - - -
20/01:00am 11.6 S 9 9 1017.5 - 0.0 - - - - - - -
20/12:30am 11.7 S 9 10 1017.5 - 0.0 - - - - - - -
20/12:00am 13.6 S 9 11 1017.4 - 0.0 - - - - - - -
 
Date/Time
CDT
Temp
°C
Wind Pressure Rain since
9am
mm
Weather Cloud Vis
km
Sea
Height
m
Swell
Dir  Spd
kts
Gust
kts
hPa Trend Height
m
Period
s
Dir
19/11:30pm 14.3 SSW 9 11 1017.6 - 0.0 - - - - - - -
19/11:00pm 15.2 SSW 11 13 1017.6 - 0.0 - - - - - - -
19/10:30pm 14.9 SSW 11 16 1017.7 - 0.0 - - - - - - -
19/10:00pm 14.9 SW 11 15 1017.8 - 0.0 - - - - - - -
19/09:30pm 14.7 SW 9 11 1017.5 - 0.0 - - - - - - -
19/09:00pm 15.6 SW 13 17 1017.2 - 0.0 - - - - - - -
19/08:30pm 16.2 SW 14 18 1017.1 - 0.0 - - - - - - -
19/08:00pm 17.4 SW 16 21 1016.8 - 0.0 - - - - - - -
19/07:30pm 17.9 SW 14 19 1016.6 - 0.0 - - - - - - -
19/07:00pm 18.3 WSW 17 21 1016.3 - 0.0 - - - - - - -
19/06:30pm 19.2 SW 17 22 1016.2 - 0.0 - - - - - - -
19/06:00pm 19.4 SW 18 24 1016.1 - 0.0 - - - - - - -
19/05:30pm 20.3 WSW 19 25 1016.0 - 0.0 - - - - - - -
19/05:00pm 18.6 WSW 17 22 1016.2 - 0.0 - - - - - - -
19/04:30pm 20.5 WSW 16 21 1016.3 - 0.0 - - - - - - -
19/04:00pm 19.1 SW 17 23 1016.4 - 0.0 - - - - - - -
19/03:30pm 18.9 WSW 18 25 1016.6 - 0.0 - - - - - - -
19/03:00pm 18.5 WSW 20 25 1016.9 - 0.0 - - - - - - -

Other Formats:

Comma delimited format used in spreadsheet applications
http://www.bom.gov.au/fwo/IDS60701/IDS60701.95659.axf

JavaScript Object Notation format (JSON) in row-major order
http://www.bom.gov.au/fwo/IDS60701/IDS60701.95659.json